»·PEaware :: DCM330 KASE-KSLC

DCM330 :: KASE-KSLC

FLIGHT INFORMATION

Flight Status: Arrived
Operator: Unknown
More flights by this operator :: More flights under this callsign
Pilot: Cole F. (14495)
Aircraft: Unknown
(EPIC)
More flights by this aircraft type
Origin: KASE Aspen-Pitkin Co/Sardy
United States
Destination: KSLC Salt Lake City Intl
United States
More flights between these airports :: More routes between these airports
Route: +LINDZ8 EKR SPANE7
File this flight plan on PilotEdge
Remarks:
Altitude:
(Current/Filed)
22,000ft
Speed:
(Current/Filed)
300kts
Departed: 19-Oct-17 10:10 AM
Arrived: 19-Oct-17 11:28 AM
Distance/Time
Traveled:
252nm/1:17
Distance/Time
To Go:
Arrived

Flight Plot

Page will automatically refresh every two minutes.

Flight plan parsing failed; only flown route is shown


Map Options




Map Legend


Flown Route
Filed Route
Departure Airport
Arrival Airport
Navaid (VOR, NDB)
Fix

Horizontal Profiles

Position Reports

Time Latitude Longitude Heading Altitude Ground
Speed
19-Oct-17 09:57 39.222459 -106.866137 247 7777ft 0kts
19-Oct-17 09:58 39.222459 -106.866137 247 7777ft 0kts
19-Oct-17 09:59 39.222459 -106.866137 247 7777ft 0kts
19-Oct-17 10:00 39.222459 -106.866137 247 7777ft 0kts
19-Oct-17 10:01 39.222459 -106.866137 247 7777ft 0kts
19-Oct-17 10:02 39.222459 -106.866137 247 7777ft 0kts
19-Oct-17 10:03 39.222459 -106.866137 247 7777ft 0kts
19-Oct-17 10:04 39.222459 -106.866137 247 7777ft 0kts
19-Oct-17 10:05 39.222459 -106.866137 247 7777ft 0kts
19-Oct-17 10:06 39.222459 -106.866137 247 7777ft 0kts
19-Oct-17 10:07 39.222459 -106.866137 247 7777ft 0kts
19-Oct-17 10:08 39.222459 -106.866137 247 7777ft 0kts
19-Oct-17 10:09 39.222459 -106.866137 247 7777ft 0kts
19-Oct-17 10:10 39.222459 -106.866137 247 7777ft 0kts
19-Oct-17 10:11 39.222283 -106.867246 170 7777ft 11kts
19-Oct-17 10:12 39.217887 -106.865146 159 7777ft 19kts
19-Oct-17 10:13 39.213086 -106.862836 157 7777ft 18kts
19-Oct-17 10:14 39.212015 -106.863556 339 7777ft 11kts
19-Oct-17 10:15 39.234915 -106.874352 349 8399ft 124kts
19-Oct-17 10:16 39.266358 -106.894337 281 9845ft 154kts
19-Oct-17 10:17 39.274519 -106.952316 281 10898ft 179kts
19-Oct-17 10:18 39.293528 -107.013583 318 11470ft 203kts
19-Oct-17 10:19 39.333024 -107.067871 310 11965ft 216kts
19-Oct-17 10:20 39.371401 -107.129600 308 12374ft 230kts
19-Oct-17 10:21 39.376611 -107.207430 260 13920ft 236kts
19-Oct-17 10:22 39.362838 -107.288647 256 15415ft 232kts
19-Oct-17 10:23 39.347352 -107.369908 254 16525ft 238kts
19-Oct-17 10:24 39.331221 -107.452529 254 17518ft 241kts
19-Oct-17 10:25 39.314823 -107.535991 254 18435ft 240kts
19-Oct-17 10:26 39.310380 -107.616620 307 19563ft 241kts
19-Oct-17 10:27 39.370211 -107.654285 334 20716ft 240kts
19-Oct-17 10:28 39.432500 -107.681208 337 21628ft 245kts
19-Oct-17 10:29 39.498861 -107.707979 338 22077ft 257kts
19-Oct-17 10:30 39.568395 -107.734866 339 22185ft 271kts
19-Oct-17 10:31 39.640954 -107.762354 339 22184ft 277kts
19-Oct-17 10:32 39.714522 -107.790264 339 22184ft 279kts
19-Oct-17 10:33 39.788619 -107.818441 339 22184ft 280kts
19-Oct-17 10:34 39.862734 -107.846691 339 22184ft 281kts
19-Oct-17 10:35 39.936831 -107.874998 339 22184ft 281kts
19-Oct-17 10:36 40.011120 -107.903441 339 22185ft 281kts
19-Oct-17 10:37 40.058250 -107.949069 284 22196ft 262kts
19-Oct-17 10:38 40.071060 -108.041244 272 22185ft 260kts
19-Oct-17 10:39 40.077444 -108.150279 270 22184ft 260kts
19-Oct-17 10:40 40.081046 -108.228091 270 22184ft 259kts
19-Oct-17 10:41 40.085802 -108.336558 270 22184ft 257kts
19-Oct-17 10:42 40.089731 -108.428683 270 22162ft 257kts
19-Oct-17 10:43 40.092962 -108.505783 270 22156ft 256kts
19-Oct-17 10:44 40.096730 -108.597352 270 22156ft 255kts
19-Oct-17 10:45 40.100360 -108.687246 269 22157ft 255kts
19-Oct-17 10:46 40.103979 -108.778610 269 22155ft 255kts
19-Oct-17 10:47 40.107539 -108.870328 269 22155ft 255kts
19-Oct-17 10:48 40.111015 -108.961796 269 22154ft 254kts
19-Oct-17 10:49 40.114428 -109.053393 269 22154ft 254kts
19-Oct-17 10:50 40.117767 -109.144963 269 22154ft 254kts
19-Oct-17 10:51 40.121017 -109.236085 269 22154ft 254kts
19-Oct-17 10:52 40.124214 -109.327776 269 22153ft 254kts
19-Oct-17 10:53 40.127328 -109.419135 269 22153ft 254kts
19-Oct-17 10:54 40.130359 -109.510227 269 22153ft 254kts
19-Oct-17 10:55 40.133288 -109.601907 269 22153ft 256kts
19-Oct-17 10:56 40.136154 -109.692980 268 22155ft 259kts
19-Oct-17 10:57 40.139010 -109.784914 268 22155ft 260kts
19-Oct-17 10:58 40.141848 -109.878557 268 22155ft 260kts
19-Oct-17 10:59 40.144615 -109.972342 268 22154ft 260kts
19-Oct-17 11:00 40.147314 -110.066458 268 22155ft 261kts
19-Oct-17 11:01 40.148660 -110.160155 266 22154ft 260kts
19-Oct-17 11:02 40.148043 -110.253729 266 22154ft 260kts
19-Oct-17 11:03 40.147261 -110.347697 266 22154ft 260kts
19-Oct-17 11:04 40.146399 -110.440858 266 22154ft 260kts
19-Oct-17 11:05 40.145454 -110.534671 266 22153ft 261kts
19-Oct-17 11:06 40.144430 -110.628591 266 22152ft 261kts
19-Oct-17 11:07 40.143332 -110.722403 265 22155ft 262kts
19-Oct-17 11:08 40.142152 -110.816772 265 22155ft 262kts
19-Oct-17 11:09 40.140898 -110.910980 265 22155ft 262kts
19-Oct-17 11:10 40.139567 -111.005231 265 22154ft 262kts
19-Oct-17 11:11 40.138156 -111.099646 265 22154ft 262kts
19-Oct-17 11:12 40.136666 -111.194262 265 22154ft 262kts
19-Oct-17 11:13 40.135112 -111.288304 266 21894ft 259kts
19-Oct-17 11:14 40.133578 -111.379986 266 20287ft 252kts
19-Oct-17 11:15 40.131958 -111.469644 266 18489ft 248kts
19-Oct-17 11:16 40.137060 -111.556171 301 17034ft 240kts
19-Oct-17 11:17 40.167072 -111.624469 288 17023ft 225kts
19-Oct-17 11:18 40.195935 -111.695250 320 16944ft 234kts
19-Oct-17 11:19 40.249323 -111.746376 320 15443ft 238kts
19-Oct-17 11:20 40.299947 -111.794667 320 13872ft 219kts
19-Oct-17 11:21 40.346837 -111.839549 321 12236ft 204kts
19-Oct-17 11:22 40.389559 -111.884092 320 10792ft 194kts
19-Oct-17 11:23 40.431244 -111.927798 320 9998ft 196kts
19-Oct-17 11:24 40.482991 -111.936411 1 9293ft 193kts
19-Oct-17 11:25 40.532120 -111.936852 359 8491ft 164kts
19-Oct-17 11:26 40.577312 -111.940567 357 7844ft 164kts
19-Oct-17 11:27 40.621676 -111.945388 354 7121ft 146kts
19-Oct-17 11:28 40.660165 -111.949881 351 6510ft 136kts
19-Oct-17 11:29 40.695864 -111.954008 351 6007ft 123kts
19-Oct-17 11:30 40.726363 -111.957511 351 5368ft 116kts
19-Oct-17 11:31 40.755881 -111.961754 354 4678ft 111kts
19-Oct-17 11:32 40.782800 -111.962126 358 4231ft 46kts
19-Oct-17 11:33 40.786809 -111.960028 180 4231ft 20kts
19-Oct-17 11:34 40.781544 -111.960023 183 4231ft 18kts
19-Oct-17 11:35 40.779244 -111.959227 0 4231ft 6kts

Navigation Log

Ident Type
Flight plan parsing failed, navigation log unavailable